Parkerford, Pennsylvania
Current Conditions -  °F | °C
As of 6:54 AM on Friday 19 Dec 2014 (Local Time) from KPTW Reporting Station
Overcast Overcast  
Wind Chill: 29°   Ceiling: 3400
Heat Index: 34°   Visibility: 10mi
Dew Point: 25°   Wind: 6mph
Humidity: 70%   Direction: 270°W
Pressure: 30.06"   Gusts: NA
Location:  40.2094°N, 75.5919°W
Report Text: KPTW 191154Z AUTO 27005KT 10SM OVC034 01/M04 A3006 RMK AO2 SLP179 T00111039 10017 20011 53007
Loading
Personal Weather Stations






























Interactive Weather Map New forecast layout! Learn more

10-Day Weather Forecast

Advertisements
Track Severe Weather on mobile